Hunter D — WDI8653 — position and weather

sailwx.info

Track history (hours):
 
Tides and Currents Weather Stations Pressure Air Temp Water Temp Dewpoint Dewpoint Depression Visibility Wind Speed Wind Dir Waves Ship Positions

Hunter D

Owner: Harley Marine Services, Inc, Seattle, WA. More information available from US FCC via Universal Licensing System and Coast Guard Vessel Documentation Center.

Last reported at 2018-Aug-14 18:58 UTC. Time now 2018-Aug-14 19:27 UTC.
Position N 47°34' W 122°21'.

Length 35 m; draft 4.5 m.

Type: Tug. MMSI: 367740770.

Date/timePositionNaut miles runAvg speedWind from/ knotsBaromVisibWave heightAir tempDewpointWater temp
2018-Aug-14 18:58N 47°34' W 122°21'0 0.0
2018-Aug-14 18:07N 47°34' W 122°21'0 0.0
2018-Aug-14 17:58N 47°34' W 122°21'0 0.0
2018-Aug-14 17:28N 47°34' W 122°21'0 0.0
2018-Aug-14 16:55N 47°34' W 122°21'0 0.0
2018-Aug-14 16:25N 47°34' W 122°21'0 0.0
2018-Aug-13 23:31N 47°34' W 122°21'0 0.0
2018-Aug-13 23:25N 47°34' W 122°21'0 0.0
2018-Aug-13 22:58N 47°34' W 122°21'0 0.0
2018-Aug-13 22:28N 47°34' W 122°21'0 0.0
2018-Aug-13 13:28N 47°34' W 122°21'0 0.0
2018-Aug-13 12:55N 47°34' W 122°21'0 0.0
2018-Aug-13 12:25N 47°34' W 122°21'0 0.0
2018-Aug-13 11:58N 47°34' W 122°21'0 0.0
2018-Aug-13 11:28N 47°34' W 122°21'0 0.0
2018-Aug-13 10:58N 47°34' W 122°21'0 0.0
2018-Aug-13 10:28N 47°34' W 122°21'0 0.0
2018-Aug-13 09:55N 47°34' W 122°21'0 0.0
2018-Aug-13 09:22N 47°34' W 122°21'0 0.0
2018-Aug-13 08:52N 47°34' W 122°21'0 0.0
2018-Aug-13 08:16N 47°34' W 122°21'0 0.0
2018-Aug-13 07:37N 47°34' W 122°21'0 0.0
2018-Aug-13 07:28N 47°34' W 122°21'0 0.0
2018-Aug-13 06:58N 47°34' W 122°21'0 0.0
2018-Aug-13 06:28N 47°34' W 122°21'0 0.0
2018-Aug-12 22:37N 47°34' W 122°21'0 0.0
2018-Aug-12 22:28N 47°34' W 122°21'0 0.0
2018-Aug-12 13:16N 47°34' W 122°21'0 0.0
2018-Aug-12 12:58N 47°34' W 122°21'0 0.0
2018-Aug-12 12:28N 47°34' W 122°21'0 0.0
2018-Aug-12 11:58N 47°34' W 122°21'0 0.0
2018-Aug-12 11:25N 47°34' W 122°21'0 0.0
2018-Aug-12 10:58N 47°34' W 122°21'0 0.0
2018-Aug-12 10:25N 47°34' W 122°21'0 0.0
2018-Aug-12 09:55N 47°34' W 122°21'0 0.0
2018-Aug-12 09:25N 47°34' W 122°21'0 0.0
2018-Aug-12 08:46N 47°34' W 122°21'0 0.0
2018-Aug-12 08:28N 47°34' W 122°21'0 0.0
2018-Aug-12 07:16N 47°34' W 122°21'0 0.0
2018-Aug-12 06:58N 47°34' W 122°21'0 0.0
2018-Aug-11 22:43N 47°34' W 122°21'0 0.0
2018-Aug-11 22:28N 47°34' W 122°21'0 0.0
2018-Aug-11 20:05N 47°34' W 122°21'0 0.0
2018-Aug-11 08:53N 47°34' W 122°21'0 0.0
2018-Aug-11 08:29N 47°34' W 122°21'0 0.0
2018-Aug-11 07:59N 47°34' W 122°21'0 0.0
2018-Aug-11 07:26N 47°34' W 122°21'0 0.0
2018-Aug-11 06:59N 47°34' W 122°21'0 0.0
2018-Aug-11 05:50N 47°34' W 122°21'0 0.0
2018-Aug-11 00:11N 47°34' W 122°21'0 0.0
2018-Aug-10 23:47N 47°34' W 122°21'0 0.0
2018-Aug-10 23:29N 47°34' W 122°21'0 0.1
2018-Aug-10 22:41N 47°34' W 122°21'0 0.0
2018-Aug-10 14:43N 47°34' W 122°21'0 0.5
2018-Aug-10 14:30N 47°34' W 122°21'1 1.2
2018-Aug-10 13:53N 47°35' W 122°21'0 0.0
2018-Aug-10 13:29N 47°35' W 122°21'0 0.0
2018-Aug-10 12:59N 47°35' W 122°21'0 0.0
2018-Aug-10 12:29N 47°35' W 122°21'0 0.0
2018-Aug-10 11:59N 47°35' W 122°21'0 0.0
2018-Aug-10 11:29N 47°35' W 122°21'0 0.0
2018-Aug-10 10:59N 47°35' W 122°21'0 0.0
2018-Aug-10 10:29N 47°35' W 122°21'0 0.0
2018-Aug-10 09:59N 47°35' W 122°21'0 0.0
2018-Aug-10 09:29N 47°35' W 122°21'0 0.0
2018-Aug-10 08:59N 47°35' W 122°21'0 0.0
2018-Aug-10 08:08N 47°35' W 122°21'0 0.0
2018-Aug-10 07:50N 47°35' W 122°21'0 0.0
2018-Aug-10 07:29N 47°35' W 122°21'0 0.0
2018-Aug-10 06:59N 47°35' W 122°21'0 0.0
2018-Aug-10 06:26N 47°35' W 122°21'0 0.0
2018-Aug-10 05:59N 47°35' W 122°21'0 0.0
2018-Aug-10 05:29N 47°35' W 122°21'0 0.5
2018-Aug-10 04:59N 47°35' W 122°21'3 5.6
2018-Aug-10 04:30N 47°36' W 122°25'4 7.2
2018-Aug-10 04:00N 47°33' W 122°28'4 8.2
2018-Aug-10 03:30N 47°29' W 122°30'6 7.8
2018-Aug-10 02:47N 47°23' W 122°32'3 7.4
2018-Aug-10 02:25N 47°21' W 122°32'3 6.8
2018-Aug-10 02:00N 47°19' W 122°29'5 5.9
2018-Aug-10 01:06N 47°16' W 122°23'0 0.0
2018-Aug-10 00:43N 47°16' W 122°23'0 0.0
2018-Aug-09 23:52N 47°16' W 122°23'0 0.0
2018-Aug-09 20:34N 47°16' W 122°23'0 5.2
2018-Aug-09 20:30N 47°16' W 122°23'0 0.3
2018-Aug-09 19:24N 47°16' W 122°23'2 2.1
2018-Aug-09 18:40N 47°17' W 122°25'1 4.7
2018-Aug-09 18:31N 47°17' W 122°25'1 2.6
2018-Aug-09 18:01N 47°18' W 122°27'3 5.7
2018-Aug-09 17:30N 47°21' W 122°27'4 7.2
2018-Aug-09 17:01N 47°23' W 122°23'3 6.8
2018-Aug-09 16:31N 47°26' W 122°24'4 7.0
2018-Aug-09 16:00N 47°29' W 122°26'4 7.1
2018-Aug-09 15:31N 47°33' W 122°27'4 7.3
2018-Aug-09 15:00N 47°36' W 122°28'3 7.0
2018-Aug-09 14:31N 47°40' W 122°28'4 7.1
2018-Aug-09 14:01N 47°43' W 122°27'3 6.7
2018-Aug-09 13:30N 47°46' W 122°26'1 2.4
2018-Aug-09 12:59N 47°47' W 122°24'0 0.1
2018-Aug-09 12:17N 47°47' W 122°24'0 0.0
2018-Aug-09 11:50N 47°47' W 122°24'0 0.0
2018-Aug-09 11:23N 47°47' W 122°24'0 0.0
2018-Aug-09 10:20N 47°47' W 122°24'0 0.0
2018-Aug-09 07:35N 47°47' W 122°24'0 0.0
2018-Aug-09 07:26N 47°47' W 122°24'0 0.0
2018-Aug-09 06:59N 47°47' W 122°24'0 0.0
2018-Aug-09 05:26N 47°47' W 122°24'0 0.0
2018-Aug-09 04:53N 47°47' W 122°24'0 0.0
2018-Aug-09 03:02N 47°47' W 122°24'0 0.0
2018-Aug-09 02:56N 47°47' W 122°24'0 0.0
2018-Aug-09 02:29N 47°47' W 122°24'0 0.0
2018-Aug-09 01:43N 47°47' W 122°24'0 0.8
2018-Aug-09 01:30N 47°47' W 122°24'3 6.7
2018-Aug-09 01:00N 47°44' W 122°25'4 7.2
2018-Aug-09 00:29N 47°40' W 122°27'3 7.0
2018-Aug-09 00:00N 47°37' W 122°24'1 2.0
2018-Aug-08 23:23N 47°37' W 122°22'0 0.1
2018-Aug-08 22:59N 47°37' W 122°22'0 0.1
2018-Aug-08 22:29N 47°37' W 122°22'0 0.0
2018-Aug-08 21:59N 47°37' W 122°22'0 0.1
2018-Aug-08 21:29N 47°37' W 122°22'0 0.1
2018-Aug-08 20:59N 47°37' W 122°22'0 0.2
2018-Aug-08 20:29N 47°37' W 122°22'0 0.1
2018-Aug-08 19:59N 47°37' W 122°22'0 0.1
2018-Aug-08 19:29N 47°37' W 122°22'0 0.0
2018-Aug-08 18:59N 47°37' W 122°22'0 0.0
2018-Aug-08 18:30N 47°37' W 122°22'0 0.1
2018-Aug-08 18:00N 47°37' W 122°22'0 0.0
2018-Aug-08 17:30N 47°37' W 122°22'0 0.1
2018-Aug-08 17:00N 47°37' W 122°22'0 0.0
2018-Aug-08 16:30N 47°37' W 122°22'0 0.0
2018-Aug-08 16:00N 47°37' W 122°22'0 0.1
2018-Aug-08 15:30N 47°37' W 122°22'0 0.1
2018-Aug-08 14:59N 47°37' W 122°22'2 3.5
2018-Aug-08 14:30N 47°36' W 122°21'1 1.3
2018-Aug-08 14:00N 47°35' W 122°21'0 0.0
2018-Aug-08 13:30N 47°35' W 122°21'0 0.0
2018-Aug-08 13:00N 47°35' W 122°21'0 0.0
2018-Aug-08 12:28N 47°35' W 122°21'0 0.0
2018-Aug-08 12:00N 47°35' W 122°21'0 0.0
2018-Aug-08 11:29N 47°35' W 122°21'0 0.0
2018-Aug-08 11:00N 47°35' W 122°21'0 0.0
2018-Aug-08 10:30N 47°35' W 122°21'0 0.0
2018-Aug-08 10:00N 47°35' W 122°21'0 0.0
2018-Aug-08 09:29N 47°35' W 122°21'0 0.0
2018-Aug-08 09:00N 47°35' W 122°21'0 0.0
2018-Aug-08 08:28N 47°35' W 122°21'0 0.0
2018-Aug-08 08:00N 47°35' W 122°21'0 0.0
2018-Aug-08 07:30N 47°35' W 122°21'0 0.0
2018-Aug-08 07:00N 47°35' W 122°21'0 0.0
2018-Aug-08 06:30N 47°35' W 122°21'0 0.0
2018-Aug-08 06:00N 47°35' W 122°21'0 0.0
2018-Aug-08 05:30N 47°35' W 122°21'0 0.0
2018-Aug-08 05:00N 47°35' W 122°21'0 0.0
2018-Aug-08 04:30N 47°35' W 122°21'0 0.0
2018-Aug-08 03:58N 47°35' W 122°21'0 0.0
2018-Aug-08 03:13N 47°35' W 122°21'0 0.0
2018-Aug-08 03:00N 47°35' W 122°21'0 0.0
2018-Aug-08 02:28N 47°35' W 122°21'0 0.0
2018-Aug-08 02:00N 47°35' W 122°21'0 0.0
2018-Aug-08 01:30N 47°35' W 122°21'0 0.0
2018-Aug-08 01:00N 47°35' W 122°21'1 0.3
2018-Aug-07 22:54N 47°35' W 122°21'1 1.4
2018-Aug-07 22:29N 47°35' W 122°21'1 2.9
2018-Aug-07 22:00N 47°37' W 122°21'0 0.0
2018-Aug-07 21:30N 47°37' W 122°21'0 0.0
2018-Aug-07 21:00N 47°37' W 122°21'0 0.0
2018-Aug-07 20:30N 47°37' W 122°21'0 0.0
2018-Aug-07 20:00N 47°37' W 122°21'0 0.0
2018-Aug-07 19:30N 47°37' W 122°21'0 0.0
2018-Aug-07 19:00N 47°37' W 122°21'0 0.0
2018-Aug-07 18:30N 47°37' W 122°21'0 0.0
2018-Aug-07 18:00N 47°37' W 122°21'0 0.0
2018-Aug-07 17:30N 47°37' W 122°21'0 0.0
2018-Aug-07 17:00N 47°37' W 122°21'0 0.0
2018-Aug-07 16:30N 47°37' W 122°21'0 0.0
2018-Aug-07 15:59N 47°37' W 122°21'0 0.0
2018-Aug-07 15:30N 47°37' W 122°21'2 3.6
2018-Aug-07 15:00N 47°37' W 122°24'3 6.7
2018-Aug-07 14:30N 47°40' W 122°27'4 7.8
2018-Aug-07 13:58N 47°44' W 122°25'3 1.2
2018-Aug-07 11:11N 47°47' W 122°24'0 0.3
2018-Aug-07 10:57N 47°47' W 122°24'0 0.0
2018-Aug-07 00:32N 47°47' W 122°24'0 3.5
2018-Aug-07 00:29N 47°47' W 122°24'4 8.1
2018-Aug-07 00:00N 47°43' W 122°26'5 8.7
2018-Aug-06 23:25N 47°38' W 122°27'4 8.3
2018-Aug-06 22:59N 47°34' W 122°26'4 8.7
2018-Aug-06 22:30N 47°30' W 122°25'4 8.4
2018-Aug-06 22:00N 47°26' W 122°23'4 7.7
2018-Aug-06 21:30N 47°22' W 122°21'4 8.9
2018-Aug-06 21:00N 47°19' W 122°26'4 2.8
2018-Aug-06 19:26N 47°16' W 122°23'0 0.0
2018-Aug-06 13:51N 47°16' W 122°23'2 3.9
2018-Aug-06 13:17N 47°17' W 122°25'2 7.5
2018-Aug-06 13:00N 47°18' W 122°28'3 6.5
2018-Aug-06 12:30N 47°21' W 122°25'3 6.7
2018-Aug-06 12:00N 47°24' W 122°22'4 7.3
2018-Aug-06 11:30N 47°27' W 122°24'3 6.9
2018-Aug-06 11:00N 47°30' W 122°24'4 7.2
2018-Aug-06 10:30N 47°34' W 122°26'3 6.1
2018-Aug-06 10:00N 47°36' W 122°23'2 3.7
2018-Aug-06 09:30N 47°35' W 122°21'0 0.0
2018-Aug-06 09:00N 47°35' W 122°21'0 0.0
2018-Aug-06 08:30N 47°35' W 122°21'0 0.0
2018-Aug-06 08:00N 47°35' W 122°21'0 0.0
2018-Aug-06 07:30N 47°35' W 122°21'0 0.0
2018-Aug-06 07:00N 47°35' W 122°21'0 0.0
2018-Aug-06 06:30N 47°35' W 122°21'0 0.0
2018-Aug-06 06:00N 47°35' W 122°21'0 0.0
2018-Aug-06 05:30N 47°35' W 122°21'0 0.0
2018-Aug-06 05:00N 47°35' W 122°21'0 0.0
2018-Aug-06 04:30N 47°35' W 122°21'0 0.0
2018-Aug-06 03:58N 47°35' W 122°21'0 0.0
2018-Aug-06 03:30N 47°35' W 122°21'0 0.0
2018-Aug-06 02:59N 47°35' W 122°21'0 0.0
2018-Aug-06 02:30N 47°35' W 122°21'0 0.0
2018-Aug-06 02:00N 47°35' W 122°21'0 0.0
2018-Aug-06 01:30N 47°35' W 122°21'0 0.0
2018-Aug-06 01:00N 47°35' W 122°21'0 0.0
2018-Aug-06 00:29N 47°35' W 122°21'0 0.0
2018-Aug-06 00:00N 47°35' W 122°21'0 0.0
2018-Aug-05 23:30N 47°35' W 122°21'0 0.0
2018-Aug-05 23:00N 47°35' W 122°21'0 0.0
2018-Aug-05 22:30N 47°35' W 122°21'0 0.1
2018-Aug-05 21:56N 47°35' W 122°21'2 5.1
2018-Aug-05 21:30N 47°37' W 122°22'1 0.1
2018-Aug-05 14:42N 47°38' W 122°23'3 3.5
2018-Aug-05 13:59N 47°39' W 122°26'3 6.8
2018-Aug-05 13:30N 47°42' W 122°26'3 6.2
2018-Aug-05 13:00N 47°45' W 122°25'2 0.5
2018-Aug-05 08:48N 47°47' W 122°24'0 0.0
2018-Aug-05 08:17N 47°47' W 122°24'0 0.0
2018-Aug-05 07:40N 47°47' W 122°24'0 0.0
2018-Aug-05 07:15N 47°47' W 122°24'0 0.0
2018-Aug-05 06:59N 47°47' W 122°24'0 0.0
2018-Aug-04 22:28N 47°47' W 122°24'2 4.1
2018-Aug-04 22:00N 47°45' W 122°25'4 7.8
2018-Aug-04 21:30N 47°42' W 122°27'  
Track history (hours):
 
Tides and Currents Weather Stations Pressure Air Temp Water Temp Dewpoint Dewpoint Depression Visibility Wind Speed Wind Dir Waves Ship Positions

Hunter D

Owner: Harley Marine Services, Inc, Seattle, WA. More information available from US FCC via Universal Licensing System and Coast Guard Vessel Documentation Center.

Last reported at 2018-Aug-14 18:58 UTC. Time now 2018-Aug-14 19:27 UTC.
Position N 47°34' W 122°21'.

Length 35 m; draft 4.5 m.

Type: Tug. MMSI: 367740770.

Date/timePositionNaut miles runAvg speedWind from/ knotsBaromVisibWave heightAir tempDewpointWater temp
2018-Aug-14 18:58N 47°34' W 122°21'0 0.0
2018-Aug-14 18:07N 47°34' W 122°21'0 0.0
2018-Aug-14 17:58N 47°34' W 122°21'0 0.0
2018-Aug-14 17:28N 47°34' W 122°21'0 0.0
2018-Aug-14 16:55N 47°34' W 122°21'0 0.0
2018-Aug-14 16:25N 47°34' W 122°21'0 0.0
2018-Aug-13 23:31N 47°34' W 122°21'0 0.0
2018-Aug-13 23:25N 47°34' W 122°21'0 0.0
2018-Aug-13 22:58N 47°34' W 122°21'0 0.0
2018-Aug-13 22:28N 47°34' W 122°21'0 0.0
2018-Aug-13 13:28N 47°34' W 122°21'0 0.0
2018-Aug-13 12:55N 47°34' W 122°21'0 0.0
2018-Aug-13 12:25N 47°34' W 122°21'0 0.0
2018-Aug-13 11:58N 47°34' W 122°21'0 0.0
2018-Aug-13 11:28N 47°34' W 122°21'0 0.0
2018-Aug-13 10:58N 47°34' W 122°21'0 0.0
2018-Aug-13 10:28N 47°34' W 122°21'0 0.0
2018-Aug-13 09:55N 47°34' W 122°21'0 0.0
2018-Aug-13 09:22N 47°34' W 122°21'0 0.0
2018-Aug-13 08:52N 47°34' W 122°21'0 0.0
2018-Aug-13 08:16N 47°34' W 122°21'0 0.0
2018-Aug-13 07:37N 47°34' W 122°21'0 0.0
2018-Aug-13 07:28N 47°34' W 122°21'0 0.0
2018-Aug-13 06:58N 47°34' W 122°21'0 0.0
2018-Aug-13 06:28N 47°34' W 122°21'0 0.0
2018-Aug-12 22:37N 47°34' W 122°21'0 0.0
2018-Aug-12 22:28N 47°34' W 122°21'0 0.0
2018-Aug-12 13:16N 47°34' W 122°21'0 0.0
2018-Aug-12 12:58N 47°34' W 122°21'0 0.0
2018-Aug-12 12:28N 47°34' W 122°21'0 0.0
2018-Aug-12 11:58N 47°34' W 122°21'0 0.0
2018-Aug-12 11:25N 47°34' W 122°21'0 0.0
2018-Aug-12 10:58N 47°34' W 122°21'0 0.0
2018-Aug-12 10:25N 47°34' W 122°21'0 0.0
2018-Aug-12 09:55N 47°34' W 122°21'0 0.0
2018-Aug-12 09:25N 47°34' W 122°21'0 0.0
2018-Aug-12 08:46N 47°34' W 122°21'0 0.0
2018-Aug-12 08:28N 47°34' W 122°21'0 0.0
2018-Aug-12 07:16N 47°34' W 122°21'0 0.0
2018-Aug-12 06:58N 47°34' W 122°21'0 0.0
2018-Aug-11 22:43N 47°34' W 122°21'0 0.0
2018-Aug-11 22:28N 47°34' W 122°21'0 0.0
2018-Aug-11 20:05N 47°34' W 122°21'0 0.0
2018-Aug-11 08:53N 47°34' W 122°21'0 0.0
2018-Aug-11 08:29N 47°34' W 122°21'0 0.0
2018-Aug-11 07:59N 47°34' W 122°21'0 0.0
2018-Aug-11 07:26N 47°34' W 122°21'0 0.0
2018-Aug-11 06:59N 47°34' W 122°21'0 0.0
2018-Aug-11 05:50N 47°34' W 122°21'0 0.0
2018-Aug-11 00:11N 47°34' W 122°21'0 0.0
2018-Aug-10 23:47N 47°34' W 122°21'0 0.0
2018-Aug-10 23:29N 47°34' W 122°21'0 0.1
2018-Aug-10 22:41N 47°34' W 122°21'0 0.0
2018-Aug-10 14:43N 47°34' W 122°21'0 0.5
2018-Aug-10 14:30N 47°34' W 122°21'1 1.2
2018-Aug-10 13:53N 47°35' W 122°21'0 0.0
2018-Aug-10 13:29N 47°35' W 122°21'0 0.0
2018-Aug-10 12:59N 47°35' W 122°21'0 0.0
2018-Aug-10 12:29N 47°35' W 122°21'0 0.0
2018-Aug-10 11:59N 47°35' W 122°21'0 0.0
2018-Aug-10 11:29N 47°35' W 122°21'0 0.0
2018-Aug-10 10:59N 47°35' W 122°21'0 0.0
2018-Aug-10 10:29N 47°35' W 122°21'0 0.0
2018-Aug-10 09:59N 47°35' W 122°21'0 0.0
2018-Aug-10 09:29N 47°35' W 122°21'0 0.0
2018-Aug-10 08:59N 47°35' W 122°21'0 0.0
2018-Aug-10 08:08N 47°35' W 122°21'0 0.0
2018-Aug-10 07:50N 47°35' W 122°21'0 0.0
2018-Aug-10 07:29N 47°35' W 122°21'0 0.0
2018-Aug-10 06:59N 47°35' W 122°21'0 0.0
2018-Aug-10 06:26N 47°35' W 122°21'0 0.0
2018-Aug-10 05:59N 47°35' W 122°21'0 0.0
2018-Aug-10 05:29N 47°35' W 122°21'0 0.5
2018-Aug-10 04:59N 47°35' W 122°21'3 5.6
2018-Aug-10 04:30N 47°36' W 122°25'4 7.2
2018-Aug-10 04:00N 47°33' W 122°28'4 8.2
2018-Aug-10 03:30N 47°29' W 122°30'6 7.8
2018-Aug-10 02:47N 47°23' W 122°32'3 7.4
2018-Aug-10 02:25N 47°21' W 122°32'3 6.8
2018-Aug-10 02:00N 47°19' W 122°29'5 5.9
2018-Aug-10 01:06N 47°16' W 122°23'0 0.0
2018-Aug-10 00:43N 47°16' W 122°23'0 0.0
2018-Aug-09 23:52N 47°16' W 122°23'0 0.0
2018-Aug-09 20:34N 47°16' W 122°23'0 5.2
2018-Aug-09 20:30N 47°16' W 122°23'0 0.3
2018-Aug-09 19:24N 47°16' W 122°23'2 2.1
2018-Aug-09 18:40N 47°17' W 122°25'1 4.7
2018-Aug-09 18:31N 47°17' W 122°25'1 2.6
2018-Aug-09 18:01N 47°18' W 122°27'3 5.7
2018-Aug-09 17:30N 47°21' W 122°27'4 7.2
2018-Aug-09 17:01N 47°23' W 122°23'3 6.8
2018-Aug-09 16:31N 47°26' W 122°24'4 7.0
2018-Aug-09 16:00N 47°29' W 122°26'4 7.1
2018-Aug-09 15:31N 47°33' W 122°27'4 7.3
2018-Aug-09 15:00N 47°36' W 122°28'3 7.0
2018-Aug-09 14:31N 47°40' W 122°28'4 7.1
2018-Aug-09 14:01N 47°43' W 122°27'3 6.7
2018-Aug-09 13:30N 47°46' W 122°26'1 2.4
2018-Aug-09 12:59N 47°47' W 122°24'0 0.1
2018-Aug-09 12:17N 47°47' W 122°24'0 0.0
2018-Aug-09 11:50N 47°47' W 122°24'0 0.0
2018-Aug-09 11:23N 47°47' W 122°24'0 0.0
2018-Aug-09 10:20N 47°47' W 122°24'0 0.0
2018-Aug-09 07:35N 47°47' W 122°24'0 0.0
2018-Aug-09 07:26N 47°47' W 122°24'0 0.0
2018-Aug-09 06:59N 47°47' W 122°24'0 0.0
2018-Aug-09 05:26N 47°47' W 122°24'0 0.0
2018-Aug-09 04:53N 47°47' W 122°24'0 0.0
2018-Aug-09 03:02N 47°47' W 122°24'0 0.0
2018-Aug-09 02:56N 47°47' W 122°24'0 0.0
2018-Aug-09 02:29N 47°47' W 122°24'0 0.0
2018-Aug-09 01:43N 47°47' W 122°24'0 0.8
2018-Aug-09 01:30N 47°47' W 122°24'3 6.7
2018-Aug-09 01:00N 47°44' W 122°25'4 7.2
2018-Aug-09 00:29N 47°40' W 122°27'3 7.0
2018-Aug-09 00:00N 47°37' W 122°24'1 2.0
2018-Aug-08 23:23N 47°37' W 122°22'0 0.1
2018-Aug-08 22:59N 47°37' W 122°22'0 0.1
2018-Aug-08 22:29N 47°37' W 122°22'0 0.0
2018-Aug-08 21:59N 47°37' W 122°22'0 0.1
2018-Aug-08 21:29N 47°37' W 122°22'0 0.1
2018-Aug-08 20:59N 47°37' W 122°22'0 0.2
2018-Aug-08 20:29N 47°37' W 122°22'0 0.1
2018-Aug-08 19:59N 47°37' W 122°22'0 0.1
2018-Aug-08 19:29N 47°37' W 122°22'0 0.0
2018-Aug-08 18:59N 47°37' W 122°22'0 0.0
2018-Aug-08 18:30N 47°37' W 122°22'0 0.1
2018-Aug-08 18:00N 47°37' W 122°22'0 0.0
2018-Aug-08 17:30N 47°37' W 122°22'0 0.1
2018-Aug-08 17:00N 47°37' W 122°22'0 0.0
2018-Aug-08 16:30N 47°37' W 122°22'0 0.0
2018-Aug-08 16:00N 47°37' W 122°22'0 0.1
2018-Aug-08 15:30N 47°37' W 122°22'0 0.1
2018-Aug-08 14:59N 47°37' W 122°22'2 3.5
2018-Aug-08 14:30N 47°36' W 122°21'1 1.3
2018-Aug-08 14:00N 47°35' W 122°21'0 0.0
2018-Aug-08 13:30N 47°35' W 122°21'0 0.0
2018-Aug-08 13:00N 47°35' W 122°21'0 0.0
2018-Aug-08 12:28N 47°35' W 122°21'0 0.0
2018-Aug-08 12:00N 47°35' W 122°21'0 0.0
2018-Aug-08 11:29N 47°35' W 122°21'0 0.0
2018-Aug-08 11:00N 47°35' W 122°21'0 0.0
2018-Aug-08 10:30N 47°35' W 122°21'0 0.0
2018-Aug-08 10:00N 47°35' W 122°21'0 0.0
2018-Aug-08 09:29N 47°35' W 122°21'0 0.0
2018-Aug-08 09:00N 47°35' W 122°21'0 0.0
2018-Aug-08 08:28N 47°35' W 122°21'0 0.0
2018-Aug-08 08:00N 47°35' W 122°21'0 0.0
2018-Aug-08 07:30N 47°35' W 122°21'0 0.0
2018-Aug-08 07:00N 47°35' W 122°21'0 0.0
2018-Aug-08 06:30N 47°35' W 122°21'0 0.0
2018-Aug-08 06:00N 47°35' W 122°21'0 0.0
2018-Aug-08 05:30N 47°35' W 122°21'0 0.0
2018-Aug-08 05:00N 47°35' W 122°21'0 0.0
2018-Aug-08 04:30N 47°35' W 122°21'0 0.0
2018-Aug-08 03:58N 47°35' W 122°21'0 0.0
2018-Aug-08 03:13N 47°35' W 122°21'0 0.0
2018-Aug-08 03:00N 47°35' W 122°21'0 0.0
2018-Aug-08 02:28N 47°35' W 122°21'0 0.0
2018-Aug-08 02:00N 47°35' W 122°21'0 0.0
2018-Aug-08 01:30N 47°35' W 122°21'0 0.0
2018-Aug-08 01:00N 47°35' W 122°21'1 0.3
2018-Aug-07 22:54N 47°35' W 122°21'1 1.4
2018-Aug-07 22:29N 47°35' W 122°21'1 2.9
2018-Aug-07 22:00N 47°37' W 122°21'0 0.0
2018-Aug-07 21:30N 47°37' W 122°21'0 0.0
2018-Aug-07 21:00N 47°37' W 122°21'0 0.0
2018-Aug-07 20:30N 47°37' W 122°21'0 0.0
2018-Aug-07 20:00N 47°37' W 122°21'0 0.0
2018-Aug-07 19:30N 47°37' W 122°21'0 0.0
2018-Aug-07 19:00N 47°37' W 122°21'0 0.0
2018-Aug-07 18:30N 47°37' W 122°21'0 0.0
2018-Aug-07 18:00N 47°37' W 122°21'0 0.0
2018-Aug-07 17:30N 47°37' W 122°21'0 0.0
2018-Aug-07 17:00N 47°37' W 122°21'0 0.0
2018-Aug-07 16:30N 47°37' W 122°21'0 0.0
2018-Aug-07 15:59N 47°37' W 122°21'0 0.0
2018-Aug-07 15:30N 47°37' W 122°21'2 3.6
2018-Aug-07 15:00N 47°37' W 122°24'3 6.7
2018-Aug-07 14:30N 47°40' W 122°27'4 7.8
2018-Aug-07 13:58N 47°44' W 122°25'3 1.2
2018-Aug-07 11:11N 47°47' W 122°24'0 0.3
2018-Aug-07 10:57N 47°47' W 122°24'0 0.0
2018-Aug-07 00:32N 47°47' W 122°24'0 3.5
2018-Aug-07 00:29N 47°47' W 122°24'4 8.1
2018-Aug-07 00:00N 47°43' W 122°26'5 8.7
2018-Aug-06 23:25N 47°38' W 122°27'4 8.3
2018-Aug-06 22:59N 47°34' W 122°26'4 8.7
2018-Aug-06 22:30N 47°30' W 122°25'4 8.4
2018-Aug-06 22:00N 47°26' W 122°23'4 7.7
2018-Aug-06 21:30N 47°22' W 122°21'4 8.9
2018-Aug-06 21:00N 47°19' W 122°26'4 2.8
2018-Aug-06 19:26N 47°16' W 122°23'0 0.0
2018-Aug-06 13:51N 47°16' W 122°23'2 3.9
2018-Aug-06 13:17N 47°17' W 122°25'2 7.5
2018-Aug-06 13:00N 47°18' W 122°28'3 6.5
2018-Aug-06 12:30N 47°21' W 122°25'3 6.7
2018-Aug-06 12:00N 47°24' W 122°22'4 7.3
2018-Aug-06 11:30N 47°27' W 122°24'3 6.9
2018-Aug-06 11:00N 47°30' W 122°24'4 7.2
2018-Aug-06 10:30N 47°34' W 122°26'3 6.1
2018-Aug-06 10:00N 47°36' W 122°23'2 3.7
2018-Aug-06 09:30N 47°35' W 122°21'0 0.0
2018-Aug-06 09:00N 47°35' W 122°21'0 0.0
2018-Aug-06 08:30N 47°35' W 122°21'0 0.0
2018-Aug-06 08:00N 47°35' W 122°21'0 0.0
2018-Aug-06 07:30N 47°35' W 122°21'0 0.0
2018-Aug-06 07:00N 47°35' W 122°21'0 0.0
2018-Aug-06 06:30N 47°35' W 122°21'0 0.0
2018-Aug-06 06:00N 47°35' W 122°21'0 0.0
2018-Aug-06 05:30N 47°35' W 122°21'0 0.0
2018-Aug-06 05:00N 47°35' W 122°21'0 0.0
2018-Aug-06 04:30N 47°35' W 122°21'0 0.0
2018-Aug-06 03:58N 47°35' W 122°21'0 0.0
2018-Aug-06 03:30N 47°35' W 122°21'0 0.0
2018-Aug-06 02:59N 47°35' W 122°21'0 0.0
2018-Aug-06 02:30N 47°35' W 122°21'0 0.0
2018-Aug-06 02:00N 47°35' W 122°21'0 0.0
2018-Aug-06 01:30N 47°35' W 122°21'0 0.0
2018-Aug-06 01:00N 47°35' W 122°21'0 0.0
2018-Aug-06 00:29N 47°35' W 122°21'0 0.0
2018-Aug-06 00:00N 47°35' W 122°21'0 0.0
2018-Aug-05 23:30N 47°35' W 122°21'0 0.0
2018-Aug-05 23:00N 47°35' W 122°21'0 0.0
2018-Aug-05 22:30N 47°35' W 122°21'0 0.1
2018-Aug-05 21:56N 47°35' W 122°21'2 5.1
2018-Aug-05 21:30N 47°37' W 122°22'1 0.1
2018-Aug-05 14:42N 47°38' W 122°23'3 3.5
2018-Aug-05 13:59N 47°39' W 122°26'3 6.8
2018-Aug-05 13:30N 47°42' W 122°26'3 6.2
2018-Aug-05 13:00N 47°45' W 122°25'2 0.5
2018-Aug-05 08:48N 47°47' W 122°24'0 0.0
2018-Aug-05 08:17N 47°47' W 122°24'0 0.0
2018-Aug-05 07:40N 47°47' W 122°24'0 0.0
2018-Aug-05 07:15N 47°47' W 122°24'0 0.0
2018-Aug-05 06:59N 47°47' W 122°24'0 0.0
2018-Aug-04 22:28N 47°47' W 122°24'2 4.1
2018-Aug-04 22:00N 47°45' W 122°25'4 7.8
2018-Aug-04 21:30N 47°42' W 122°27'  

Dump ship's entire track history